Time;durP1;ratioP1;P1;durP2;ratioP2;P2;SDS_P1;SDS_P2;PMS_P1;PMS_P2;Temp;Humidity;BMP_temperature;BMP_pressure;BME280_temperature;BME280_humidity;BME280_pressure;Samples;Min_cycle;Max_cycle;Signal;HPM_P1;HPM_P2
2021/04/11 00:02:07;;;;;;;34.50;17.77;;;;;;;;;;5077086;28;20181;-89
2021/04/11 00:04:33;;;;;;;40.20;18.13;;;;;;;;;;5060883;28;20423;-89
2021/04/11 00:06:59;;;;;;;40.85;17.73;;;;;;;;;;5075059;28;20203;-89
2021/04/11 00:09:25;;;;;;;26.10;16.38;;;;;;;;;;5065327;28;20185;-89
2021/04/11 00:11:51;;;;;;;28.90;17.65;;;;;;;;;;5078123;28;20197;-88
2021/04/11 00:14:17;;;;;;;30.37;16.70;;;;;;;;;;5072334;28;20643;-88
2021/04/11 00:16:43;;;;;;;32.30;16.92;;;;;;;;;;5066060;28;20698;-87
2021/04/11 00:19:09;;;;;;;41.73;16.83;;;;;;;;;;5065739;28;20204;-89
2021/04/11 00:21:35;;;;;;;22.67;15.82;;;;;;;;;;5059174;28;20440;-88
2021/04/11 00:24:01;;;;;;;24.52;14.85;;;;;;;;;;5060666;28;20181;-88
2021/04/11 00:26:27;;;;;;;49.03;16.60;;;;;;;;;;5064688;28;20212;-88
2021/04/11 00:28:53;;;;;;;42.13;16.63;;;;;;;;;;5057738;28;20224;-87
2021/04/11 00:31:19;;;;;;;30.27;15.95;;;;;;;;;;5058593;28;20264;-89
2021/04/11 00:33:45;;;;;;;26.77;14.70;;;;;;;;;;5079853;28;20213;-86
2021/04/11 00:36:13;;;;;;;30.02;16.30;;;;;;;;;;5064509;28;20209;-88
2021/04/11 00:38:39;;;;;;;32.03;15.40;;;;;;;;;;5064171;28;20735;-89
2021/04/11 00:41:25;;;;;;;31.08;17.20;;;;;;;;;;5059460;28;20181;-89
2021/04/11 00:43:52;;;;;;;29.15;15.68;;;;;;;;;;5059318;28;20185;-85
2021/04/11 00:46:27;;;;;;;34.55;16.40;;;;;;;;;;5064212;28;20195;-89
2021/04/11 00:48:53;;;;;;;27.27;16.15;;;;;;;;;;5059013;28;20188;-88
2021/04/11 00:51:23;;;;;;;29.55;15.95;;;;;;;;;;5058447;28;20212;-88
2021/04/11 00:53:49;;;;;;;38.97;16.30;;;;;;;;;;5078283;28;20185;-89
2021/04/11 00:56:16;;;;;;;48.03;16.60;;;;;;;;;;5060543;28;20224;-87
2021/04/11 00:58:43;;;;;;;31.60;17.77;;;;;;;;;;5070403;28;20215;-88
2021/04/11 01:01:09;;;;;;;26.25;15.80;;;;;;;;;;5059019;28;20177;-89
2021/04/11 01:03:37;;;;;;;28.50;17.05;;;;;;;;;;5059870;28;20666;-88
2021/04/11 01:06:04;;;;;;;39.97;16.95;;;;;;;;;;5079359;28;20185;-87
2021/04/11 01:08:32;;;;;;;28.92;15.50;;;;;;;;;;5071714;28;20315;-88
2021/04/11 01:11:01;;;;;;;23.55;15.82;;;;;;;;;;5062834;28;20216;-87
2021/04/11 01:13:28;;;;;;;25.38;15.93;;;;;;;;;;5072509;28;20205;-88
2021/04/11 01:15:54;;;;;;;25.33;14.98;;;;;;;;;;5080451;28;20192;-87
2021/04/11 01:18:21;;;;;;;20.77;15.10;;;;;;;;;;5063633;28;20208;-89
2021/04/11 01:20:47;;;;;;;32.38;17.58;;;;;;;;;;5062938;28;20181;-88
2021/04/11 01:23:17;;;;;;;25.42;16.35;;;;;;;;;;5058989;28;20177;-88
2021/04/11 01:25:43;;;;;;;41.05;19.45;;;;;;;;;;5068289;28;20195;-86
2021/04/11 01:28:12;;;;;;;30.73;17.25;;;;;;;;;;5062649;28;20220;-87
2021/04/11 01:30:39;;;;;;;32.53;18.73;;;;;;;;;;5058182;28;20276;-88
2021/04/11 01:33:13;;;;;;;34.20;18.08;;;;;;;;;;5063405;28;20192;-87
2021/04/11 01:35:40;;;;;;;30.55;18.20;;;;;;;;;;5058813;28;20189;-88
2021/04/11 01:38:06;;;;;;;29.02;17.88;;;;;;;;;;5072945;28;20212;-88
2021/04/11 01:40:38;;;;;;;38.38;18.10;;;;;;;;;;5059700;28;20200;-88
2021/04/11 01:43:05;;;;;;;31.15;17.27;;;;;;;;;;5084901;28;20234;-87
2021/04/11 01:45:33;;;;;;;35.47;17.92;;;;;;;;;;5062298;28;20220;-86
2021/04/11 01:48:00;;;;;;;28.13;19.00;;;;;;;;;;5062312;28;20200;-86
2021/04/11 01:50:26;;;;;;;40.05;19.35;;;;;;;;;;5066458;28;20204;-88
2021/04/11 01:52:53;;;;;;;36.78;18.85;;;;;;;;;;5063299;28;20192;-86
2021/04/11 01:55:19;;;;;;;31.88;20.00;;;;;;;;;;5062558;28;20165;-87
2021/04/11 01:57:46;;;;;;;24.23;18.30;;;;;;;;;;5062544;28;20195;-87
2021/04/11 02:00:18;;;;;;;42.88;21.17;;;;;;;;;;5066725;28;20176;-87
2021/04/11 02:02:44;;;;;;;35.70;21.20;;;;;;;;;;5086080;28;20189;-86
2021/04/11 02:05:14;;;;;;;34.03;21.42;;;;;;;;;;5061919;28;20177;-86
2021/04/11 02:07:40;;;;;;;30.55;20.25;;;;;;;;;;5058070;28;20173;-86
2021/04/11 02:10:09;;;;;;;35.10;22.05;;;;;;;;;;5061436;28;20177;-87
2021/04/11 02:12:36;;;;;;;32.53;21.15;;;;;;;;;;5064737;28;20180;-87
2021/04/11 02:15:06;;;;;;;41.17;22.52;;;;;;;;;;5071263;28;20208;-87
2021/04/11 02:17:32;;;;;;;42.28;21.90;;;;;;;;;;5062995;28;20185;-89
2021/04/11 02:19:58;;;;;;;39.08;21.67;;;;;;;;;;5068955;28;20224;-84
2021/04/11 02:22:28;;;;;;;36.47;21.20;;;;;;;;;;5058583;28;20169;-86
2021/04/11 02:24:54;;;;;;;36.03;23.95;;;;;;;;;;5077964;28;20211;-86
2021/04/11 02:27:21;;;;;;;40.13;22.05;;;;;;;;;;5077976;28;20221;-90
2021/04/11 02:29:48;;;;;;;34.22;21.05;;;;;;;;;;5061725;28;20423;-87
2021/04/11 02:32:14;;;;;;;33.97;20.92;;;;;;;;;;5057480;28;20204;-86
2021/04/11 02:34:41;;;;;;;33.22;20.98;;;;;;;;;;5072930;28;20271;-85
2021/04/11 02:37:09;;;;;;;33.75;20.73;;;;;;;;;;5061377;28;20534;-88
2021/04/11 02:39:37;;;;;;;37.72;22.08;;;;;;;;;;5061825;28;20208;-88
2021/04/11 02:42:05;;;;;;;33.60;20.02;;;;;;;;;;5077121;28;20185;-88
2021/04/11 02:44:35;;;;;;;31.17;20.00;;;;;;;;;;5058533;28;20182;-89
2021/04/11 02:47:02;;;;;;;30.60;19.67;;;;;;;;;;5062164;28;20184;-88
2021/04/11 02:49:28;;;;;;;36.05;19.92;;;;;;;;;;5062721;28;20650;-86
2021/04/11 02:51:54;;;;;;;38.08;20.05;;;;;;;;;;5057180;28;20204;-87
2021/04/11 02:54:22;;;;;;;34.70;18.42;;;;;;;;;;5062150;28;20225;-86
2021/04/11 02:56:48;;;;;;;29.13;17.60;;;;;;;;;;5062214;28;20301;-86
2021/04/11 02:59:15;;;;;;;28.52;18.27;;;;;;;;;;5055200;28;20204;-87
2021/04/11 03:01:44;;;;;;;31.63;19.50;;;;;;;;;;5060734;28;20181;-88
2021/04/11 03:04:14;;;;;;;29.20;19.05;;;;;;;;;;5062577;28;20200;-89
2021/04/11 03:06:42;;;;;;;37.60;20.50;;;;;;;;;;5080609;28;20177;-87
2021/04/11 03:09:17;;;;;;;35.30;19.65;;;;;;;;;;5062287;28;20193;-87
2021/04/11 03:11:44;;;;;;;34.25;19.17;;;;;;;;;;5061662;28;20180;-87
2021/04/11 03:14:15;;;;;;;34.97;18.10;;;;;;;;;;5076328;28;20702;-87
2021/04/11 03:16:42;;;;;;;38.60;17.48;;;;;;;;;;5075829;28;20180;-87
2021/04/11 03:19:08;;;;;;;32.20;18.13;;;;;;;;;;5064718;28;20207;-86
2021/04/11 03:21:35;;;;;;;38.80;18.27;;;;;;;;;;5064594;28;20249;-87
2021/04/11 03:24:01;;;;;;;32.25;17.48;;;;;;;;;;5065663;28;20177;-86
2021/04/11 03:26:43;;;;;;;39.08;18.20;;;;;;;;;;5071956;28;20169;-86
2021/04/11 03:29:12;;;;;;;32.35;18.88;;;;;;;;;;5060933;28;20267;-87
2021/04/11 03:31:41;;;;;;;35.00;19.50;;;;;;;;;;5060569;28;20173;-86
2021/04/11 03:34:07;;;;;;;32.72;18.13;;;;;;;;;;5065843;28;20181;-87
2021/04/11 03:36:34;;;;;;;36.70;20.27;;;;;;;;;;5081179;28;20227;-87
2021/04/11 03:39:00;;;;;;;50.60;19.15;;;;;;;;;;5065139;28;20201;-87
2021/04/11 03:41:31;;;;;;;33.35;16.02;;;;;;;;;;5074413;28;20186;-87
2021/04/11 03:43:59;;;;;;;36.65;17.65;;;;;;;;;;5059417;28;20189;-88
2021/04/11 03:46:31;;;;;;;22.80;15.18;;;;;;;;;;5065822;28;20267;-85
2021/04/11 03:48:57;;;;;;;27.45;16.45;;;;;;;;;;5063701;28;20201;-84
2021/04/11 03:51:24;;;;;;;30.27;15.40;;;;;;;;;;5059878;28;20232;-87
2021/04/11 03:54:01;;;;;;;26.35;15.00;;;;;;;;;;5061972;28;20497;-83
2021/04/11 03:56:31;;;;;;;28.67;16.10;;;;;;;;;;5063735;28;20248;-85
2021/04/11 03:59:00;;;;;;;36.45;15.35;;;;;;;;;;5064382;28;20219;-86
2021/04/11 04:01:30;;;;;;;24.55;14.27;;;;;;;;;;5066472;28;20204;-86
2021/04/11 04:04:05;;;;;;;26.20;14.10;;;;;;;;;;5078714;28;20177;-85
2021/04/11 04:06:33;;;;;;;20.02;12.52;;;;;;;;;;5058364;28;20188;-86
2021/04/11 04:08:59;;;;;;;15.10;10.38;;;;;;;;;;5077387;28;20185;-88
2021/04/11 04:11:34;;;;;;;24.73;12.40;;;;;;;;;;5076372;28;20682;-87
2021/04/11 04:14:11;;;;;;;22.65;11.25;;;;;;;;;;5064473;28;20185;-86
2021/04/11 04:16:54;;;;;;;19.52;11.25;;;;;;;;;;5060879;28;20185;-87
2021/04/11 04:19:25;;;;;;;19.70;11.10;;;;;;;;;;5058143;28;20226;-88
2021/04/11 04:21:51;;;;;;;15.98;10.70;;;;;;;;;;5079226;28;20219;-88
2021/04/11 04:24:20;;;;;;;19.52;10.32;;;;;;;;;;5079248;28;20263;-87
2021/04/11 04:26:48;;;;;;;11.63;7.80;;;;;;;;;;5077535;28;20217;-90
2021/04/11 04:29:23;;;;;;;18.33;8.95;;;;;;;;;;5063986;28;20204;-88
2021/04/11 04:32:02;;;;;;;14.55;9.15;;;;;;;;;;5060126;28;20195;-89
2021/04/11 04:34:34;;;;;;;20.40;8.93;;;;;;;;;;5059977;28;20183;-87
2021/04/11 04:37:00;;;;;;;10.38;6.95;;;;;;;;;;5064056;28;20246;-84
2021/04/11 04:39:32;;;;;;;15.10;8.23;;;;;;;;;;5059032;28;20249;-87
2021/04/11 04:42:01;;;;;;;14.00;8.85;;;;;;;;;;5058148;28;20501;-88
2021/04/11 04:44:34;;;;;;;15.00;7.63;;;;;;;;;;5075177;28;20204;-86
2021/04/11 04:47:07;;;;;;;20.83;8.50;;;;;;;;;;5063188;28;20199;-87
2021/04/11 04:49:51;;;;;;;17.05;8.30;;;;;;;;;;5060981;28;20185;-87
2021/04/11 04:52:19;;;;;;;12.48;8.50;;;;;;;;;;5058047;28;20192;-88
2021/04/11 04:54:47;;;;;;;16.98;8.05;;;;;;;;;;5064149;28;20204;-85
2021/04/11 04:57:18;;;;;;;20.65;8.57;;;;;;;;;;5058544;28;20186;-87
2021/04/11 04:59:52;;;;;;;14.82;8.55;;;;;;;;;;5057447;28;20213;-88
2021/04/11 05:02:20;;;;;;;13.15;8.32;;;;;;;;;;5064599;28;20173;-88
2021/04/11 05:04:49;;;;;;;11.68;6.38;;;;;;;;;;5064392;28;20236;-86
2021/04/11 05:07:17;;;;;;;11.52;7.18;;;;;;;;;;5060654;28;20264;-86
2021/04/11 05:09:48;;;;;;;12.90;7.35;;;;;;;;;;5058490;28;20177;-87
2021/04/11 05:12:24;;;;;;;10.77;6.93;;;;;;;;;;5062658;28;20177;-86
2021/04/11 05:14:52;;;;;;;15.27;6.78;;;;;;;;;;5060599;28;20203;-86
2021/04/11 05:17:26;;;;;;;10.75;7.18;;;;;;;;;;5059878;28;20562;-84
2021/04/11 05:19:59;;;;;;;8.02;6.25;;;;;;;;;;5062478;28;20287;-87
2021/04/11 05:22:25;;;;;;;10.60;6.38;;;;;;;;;;5058922;28;20181;-85
2021/04/11 05:25:04;;;;;;;12.70;6.50;;;;;;;;;;5063120;28;20181;-87
2021/04/11 05:27:38;;;;;;;9.13;6.38;;;;;;;;;;5062073;28;20677;-86
2021/04/11 05:30:16;;;;;;;8.38;6.15;;;;;;;;;;5056383;28;20189;-87
2021/04/11 05:32:42;;;;;;;11.57;6.53;;;;;;;;;;5062120;28;20189;-88
2021/04/11 05:35:10;;;;;;;8.98;6.72;;;;;;;;;;5075303;28;20195;-88
2021/04/11 05:37:40;;;;;;;10.98;6.35;;;;;;;;;;5062645;28;20189;-86
2021/04/11 05:40:12;;;;;;;10.05;6.63;;;;;;;;;;5061620;28;20257;-86
2021/04/11 05:42:47;;;;;;;9.23;6.78;;;;;;;;;;5073603;28;20275;-88
2021/04/11 05:45:21;;;;;;;9.35;6.35;;;;;;;;;;5073982;28;20531;-89
2021/04/11 05:47:54;;;;;;;9.07;6.75;;;;;;;;;;5057186;28;20524;-87
2021/04/11 05:50:22;;;;;;;10.70;6.63;;;;;;;;;;5060156;28;20173;-83
2021/04/11 05:52:52;;;;;;;8.60;6.47;;;;;;;;;;5060962;28;20200;-83
2021/04/11 05:55:19;;;;;;;8.50;6.45;;;;;;;;;;5061993;28;20523;-85
2021/04/11 05:57:47;;;;;;;10.20;6.63;;;;;;;;;;5072464;28;20181;-84
2021/04/11 06:00:16;;;;;;;9.10;6.63;;;;;;;;;;5058170;28;20173;-86
2021/04/11 06:02:47;;;;;;;8.15;6.55;;;;;;;;;;5061986;28;20185;-85
2021/04/11 06:05:16;;;;;;;11.32;7.05;;;;;;;;;;5072697;28;20181;-85
2021/04/11 06:07:42;;;;;;;10.60;6.50;;;;;;;;;;5073090;28;20204;-85
2021/04/11 06:10:31;;;;;;;8.17;5.93;;;;;;;;;;5058089;28;20200;-84
2021/04/11 06:12:57;;;;;;;10.65;6.90;;;;;;;;;;5054267;28;20459;-86
2021/04/11 06:15:34;;;;;;;9.10;5.83;;;;;;;;;;5060758;28;20185;-83
2021/04/11 06:18:01;;;;;;;8.50;6.45;;;;;;;;;;5061810;28;20506;-83
2021/04/11 06:20:27;;;;;;;9.10;7.25;;;;;;;;;;5077836;28;20215;-82
2021/04/11 06:23:19;;;;;;;13.10;7.22;;;;;;;;;;5056906;28;20545;-85
2021/04/11 06:25:49;;;;;;;7.35;5.50;;;;;;;;;;5020080;28;20204;-84
2021/04/11 06:28:20;;;;;;;13.05;6.78;;;;;;;;;;5018322;28;20224;-83
2021/04/11 06:30:51;;;;;;;7.25;5.28;;;;;;;;;;5003621;28;20190;-83
2021/04/11 06:33:30;;;;;;;6.75;5.65;;;;;;;;;;5000279;28;20565;-85
2021/04/11 06:36:16;;;;;;;9.23;5.50;;;;;;;;;;5009152;28;20205;-84
2021/04/11 06:38:51;;;;;;;10.95;6.10;;;;;;;;;;5016415;28;20218;-86
2021/04/11 06:41:17;;;;;;;9.40;6.13;;;;;;;;;;5019612;28;20186;-82
2021/04/11 06:43:50;;;;;;;8.80;6.23;;;;;;;;;;5022697;28;20221;-81
2021/04/11 06:46:27;;;;;;;10.88;6.57;;;;;;;;;;5021461;28;20512;-85
2021/04/11 06:49:08;;;;;;;8.35;6.00;;;;;;;;;;5007275;28;20201;-81
2021/04/11 06:51:57;;;;;;;8.13;5.05;;;;;;;;;;5001927;28;20259;-85
2021/04/11 06:54:31;;;;;;;7.72;5.47;;;;;;;;;;4960539;28;20587;-81
2021/04/11 06:56:57;;;;;;;8.35;4.28;;;;;;;;;;4960695;28;20196;-83
2021/04/11 06:59:46;;;;;;;8.27;5.53;;;;;;;;;;4943884;29;20236;-84
2021/04/11 07:02:32;;;;;;;7.10;4.60;;;;;;;;;;4968131;28;20206;-84
2021/04/11 07:05:07;;;;;;;7.53;5.47;;;;;;;;;;5000539;28;20692;-83
2021/04/11 07:07:39;;;;;;;7.65;5.90;;;;;;;;;;4981110;28;20259;-82
2021/04/11 07:10:15;;;;;;;9.82;7.32;;;;;;;;;;4998294;28;20635;-86
2021/04/11 07:13:00;;;;;;;10.00;5.70;;;;;;;;;;4996116;28;20241;-86
2021/04/11 07:15:26;;;;;;;6.28;5.35;;;;;;;;;;5001663;28;20190;-86
2021/04/11 07:17:58;;;;;;;8.93;5.45;;;;;;;;;;4998182;28;20207;-85
2021/04/11 07:20:29;;;;;;;5.53;4.15;;;;;;;;;;5000333;28;20255;-85
2021/04/11 07:23:17;;;;;;;7.15;4.22;;;;;;;;;;5001053;28;20521;-88
2021/04/11 07:25:57;;;;;;;5.20;4.07;;;;;;;;;;4987105;28;20179;-86
2021/04/11 07:28:28;;;;;;;7.55;5.05;;;;;;;;;;4998469;28;20235;-85
2021/04/11 07:31:13;;;;;;;5.80;4.50;;;;;;;;;;5013679;28;20201;-84
2021/04/11 07:33:58;;;;;;;9.18;4.75;;;;;;;;;;5059812;28;20650;-85
2021/04/11 07:36:41;;;;;;;6.28;4.38;;;;;;;;;;5055130;28;20642;-85
2021/04/11 07:39:24;;;;;;;6.07;4.68;;;;;;;;;;5062136;28;20205;-86
2021/04/11 07:41:53;;;;;;;5.97;4.82;;;;;;;;;;5058799;28;20208;-86
2021/04/11 07:44:38;;;;;;;8.20;4.55;;;;;;;;;;5075762;28;20629;-87
2021/04/11 07:47:16;;;;;;;5.38;4.55;;;;;;;;;;5061958;28;20654;-85
2021/04/11 07:50:00;;;;;;;6.63;4.80;;;;;;;;;;5071987;28;20197;-86
2021/04/11 07:52:44;;;;;;;6.95;5.20;;;;;;;;;;5069574;28;20164;-86
2021/04/11 07:55:25;;;;;;;7.70;5.47;;;;;;;;;;5063861;28;20201;-85
2021/04/11 07:58:01;;;;;;;6.25;4.80;;;;;;;;;;5064313;28;20185;-87
2021/04/11 08:00:33;;;;;;;6.25;5.57;;;;;;;;;;5061078;28;20233;-84
2021/04/11 08:03:02;;;;;;;9.82;5.80;;;;;;;;;;5058378;28;20182;-85
2021/04/11 08:05:34;;;;;;;8.02;5.40;;;;;;;;;;5064712;28;20274;-86
2021/04/11 08:08:19;;;;;;;8.73;5.43;;;;;;;;;;5063411;28;20706;-85
2021/04/11 08:11:04;;;;;;;6.78;5.40;;;;;;;;;;5071228;28;20203;-86
2021/04/11 08:13:38;;;;;;;8.52;5.13;;;;;;;;;;5064446;28;20173;-87
2021/04/11 08:16:04;;;;;;;6.10;4.85;;;;;;;;;;5060132;28;20183;-88
2021/04/11 08:18:33;;;;;;;7.77;5.37;;;;;;;;;;5071882;28;20208;-87
2021/04/11 08:21:13;;;;;;;8.77;6.28;;;;;;;;;;5066112;28;20508;-88
2021/04/11 08:23:55;;;;;;;6.05;5.45;;;;;;;;;;5059527;28;20173;-87
2021/04/11 08:26:51;;;;;;;9.30;5.35;;;;;;;;;;5072836;28;20183;-88
2021/04/11 08:29:23;;;;;;;6.95;5.32;;;;;;;;;;5049731;28;20232;-87
2021/04/11 08:31:55;;;;;;;9.45;5.50;;;;;;;;;;5058893;28;20230;-86
2021/04/11 08:34:33;;;;;;;6.45;4.90;;;;;;;;;;5062583;28;20180;-89
2021/04/11 08:37:02;;;;;;;8.95;5.10;;;;;;;;;;5064284;28;20184;-89
2021/04/11 08:39:47;;;;;;;9.80;5.57;;;;;;;;;;5059639;28;20205;-87
2021/04/11 08:42:22;;;;;;;7.80;4.65;;;;;;;;;;5070808;28;20243;-88
2021/04/11 08:45:03;;;;;;;5.88;4.78;;;;;;;;;;5053215;28;20196;-90
2021/04/11 08:47:34;;;;;;;7.07;4.70;;;;;;;;;;5062025;28;20193;-88
2021/04/11 08:50:01;;;;;;;7.10;5.20;;;;;;;;;;5074236;28;20185;-87
2021/04/11 08:52:27;;;;;;;7.25;5.90;;;;;;;;;;5059702;28;20177;-86
2021/04/11 08:55:02;;;;;;;7.60;6.00;;;;;;;;;;5058278;28;20184;-86
2021/04/11 08:57:39;;;;;;;6.78;5.07;;;;;;;;;;5057748;28;20557;-86
2021/04/11 09:00:24;;;;;;;8.93;4.70;;;;;;;;;;5059922;28;20205;-86
2021/04/11 09:02:59;;;;;;;9.55;6.18;;;;;;;;;;5052334;28;20211;-87
2021/04/11 09:05:29;;;;;;;6.07;4.72;;;;;;;;;;5063567;28;20593;-88
2021/04/11 09:08:02;;;;;;;5.80;4.57;;;;;;;;;;5058757;28;20236;-89
2021/04/11 09:10:47;;;;;;;5.72;4.68;;;;;;;;;;5064650;28;20502;-90
2021/04/11 09:13:27;;;;;;;4.70;3.60;;;;;;;;;;5061093;28;20181;-87
2021/04/11 09:16:12;;;;;;;10.82;5.55;;;;;;;;;;5058137;28;20177;-88
2021/04/11 09:18:57;;;;;;;7.70;4.65;;;;;;;;;;5059015;28;20213;-87
2021/04/11 09:21:29;;;;;;;4.95;4.25;;;;;;;;;;5056853;28;20680;-88
2021/04/11 09:23:58;;;;;;;4.82;4.05;;;;;;;;;;5059249;28;20185;-88
2021/04/11 09:26:42;;;;;;;4.93;4.50;;;;;;;;;;5073201;28;20182;-90
2021/04/11 09:29:22;;;;;;;5.15;4.63;;;;;;;;;;5056419;28;20216;-90
2021/04/11 09:32:07;;;;;;;5.38;4.75;;;;;;;;;;5062042;28;20181;-89
2021/04/11 09:34:53;;;;;;;5.53;4.85;;;;;;;;;;5059115;28;20181;-88
2021/04/11 09:37:43;;;;;;;10.98;4.47;;;;;;;;;;5057133;28;20574;-85
2021/04/11 09:40:12;;;;;;;4.70;4.30;;;;;;;;;;5064306;28;20232;-91
2021/04/11 09:43:08;;;;;;;7.55;5.68;;;;;;;;;;5057460;28;20206;-87
2021/04/11 09:45:39;;;;;;;5.85;4.93;;;;;;;;;;5059327;28;20208;-90
2021/04/11 09:48:24;;;;;;;6.72;5.05;;;;;;;;;;5059582;28;20178;-88
2021/04/11 09:50:59;;;;;;;5.35;3.72;;;;;;;;;;5053228;28;20199;-87
2021/04/11 09:53:43;;;;;;;6.18;4.78;;;;;;;;;;5077804;28;20177;-91
2021/04/11 09:56:28;;;;;;;7.90;5.30;;;;;;;;;;5058368;28;20188;-90
2021/04/11 09:59:06;;;;;;;7.47;5.43;;;;;;;;;;5062434;28;20682;-88
2021/04/11 10:01:43;;;;;;;6.95;5.25;;;;;;;;;;5063703;28;20244;-88
2021/04/11 10:04:20;;;;;;;9.18;5.15;;;;;;;;;;5063046;28;20173;-90
2021/04/11 10:07:12;;;;;;;6.45;5.20;;;;;;;;;;5058876;28;20757;-87
2021/04/11 10:09:41;;;;;;;5.57;4.85;;;;;;;;;;5072717;28;20200;-89
2021/04/11 10:12:07;;;;;;;7.70;5.55;;;;;;;;;;5077061;28;20181;-86
2021/04/11 10:14:52;;;;;;;6.68;5.47;;;;;;;;;;5062932;28;20272;-88
2021/04/11 10:17:18;;;;;;;10.18;5.75;;;;;;;;;;5076464;28;20178;-89
2021/04/11 10:20:02;;;;;;;9.27;5.43;;;;;;;;;;5062079;28;20255;-86
2021/04/11 10:22:42;;;;;;;8.70;5.63;;;;;;;;;;5065397;28;21000;-88
2021/04/11 10:25:19;;;;;;;7.32;5.70;;;;;;;;;;5077125;28;20165;-88
2021/04/11 10:27:57;;;;;;;5.57;4.85;;;;;;;;;;5065018;28;20217;-85
2021/04/11 10:30:24;;;;;;;7.57;5.45;;;;;;;;;;5060819;28;20228;-86
2021/04/11 10:32:49;;;;;;;9.55;4.78;;;;;;;;;;5065671;28;20185;-85
2021/04/11 10:35:15;;;;;;;6.83;4.60;;;;;;;;;;5075891;28;20535;-85
2021/04/11 10:37:51;;;;;;;10.87;5.33;;;;;;;;;;5078782;28;20503;-86
2021/04/11 10:40:17;;;;;;;10.00;5.05;;;;;;;;;;5068788;28;20462;-84
2021/04/11 10:42:43;;;;;;;6.28;4.40;;;;;;;;;;5076136;28;20188;-87
2021/04/11 10:45:15;;;;;;;7.40;4.90;;;;;;;;;;5065738;28;20177;-84
2021/04/11 10:47:41;;;;;;;5.45;4.68;;;;;;;;;;5065678;28;20965;-80
2021/04/11 10:50:12;;;;;;;7.28;4.78;;;;;;;;;;5061318;28;20231;-81
2021/04/11 10:52:47;;;;;;;5.18;4.53;;;;;;;;;;5062638;28;20175;-79
2021/04/11 10:55:13;;;;;;;6.60;4.00;;;;;;;;;;5060870;28;20169;-78
2021/04/11 10:57:57;;;;;;;5.43;4.87;;;;;;;;;;5055656;28;20789;-80
2021/04/11 11:00:29;;;;;;;11.23;5.43;;;;;;;;;;5065240;28;20845;-79
2021/04/11 11:02:58;;;;;;;7.75;4.40;;;;;;;;;;5059736;28;20336;-81
2021/04/11 11:05:32;;;;;;;6.15;4.55;;;;;;;;;;5062889;28;20364;-80
2021/04/11 11:08:21;;;;;;;4.05;3.20;;;;;;;;;;5076596;28;20212;-81
2021/04/11 11:10:54;;;;;;;6.68;4.07;;;;;;;;;;5061086;28;20195;-79
2021/04/11 11:13:39;;;;;;;7.50;4.30;;;;;;;;;;5062776;28;20189;-79
2021/04/11 11:16:14;;;;;;;9.50;4.35;;;;;;;;;;5065351;28;20651;-79
2021/04/11 11:18:43;;;;;;;8.40;3.13;;;;;;;;;;5063389;28;20234;-78
2021/04/11 11:21:12;;;;;;;6.30;4.60;;;;;;;;;;5065177;28;20185;-79
2021/04/11 11:23:57;;;;;;;5.05;3.63;;;;;;;;;;5079895;28;20173;-79
2021/04/11 11:26:58;;;;;;;4.50;3.72;;;;;;;;;;5062244;28;20181;-80
2021/04/11 11:29:27;;;;;;;15.30;11.93;;;;;;;;;;5019569;28;20676;-78
2021/04/11 11:32:08;;;;;;;6.40;4.82;;;;;;;;;;5023099;28;20194;-79
2021/04/11 11:34:43;;;;;;;8.50;3.92;;;;;;;;;;5020282;28;20240;-78
2021/04/11 11:37:24;;;;;;;4.55;3.45;;;;;;;;;;5023270;28;20201;-81
2021/04/11 11:39:54;;;;;;;7.57;3.83;;;;;;;;;;5022864;28;20229;-79
2021/04/11 11:42:33;;;;;;;4.05;2.80;;;;;;;;;;5022662;28;20182;-80
2021/04/11 11:45:17;;;;;;;6.80;5.30;;;;;;;;;;5022630;28;20198;-79
2021/04/11 11:47:49;;;;;;;3.75;3.42;;;;;;;;;;5021619;28;20250;-80
2021/04/11 11:50:20;;;;;;;6.38;3.10;;;;;;;;;;5016401;28;20198;-76
2021/04/11 11:53:01;;;;;;;6.93;2.97;;;;;;;;;;5016903;28;20195;-79
2021/04/11 11:55:27;;;;;;;6.30;4.05;;;;;;;;;;5023051;28;20212;-76
2021/04/11 11:57:57;;;;;;;8.33;4.80;;;;;;;;;;5021048;28;20203;-77
2021/04/11 12:00:22;;;;;;;6.25;4.90;;;;;;;;;;5021387;28;20476;-76
2021/04/11 12:02:55;;;;;;;6.13;3.43;;;;;;;;;;5029257;28;20198;-77
2021/04/11 12:05:25;;;;;;;4.53;2.83;;;;;;;;;;5064633;28;20431;-76
2021/04/11 12:08:04;;;;;;;6.57;3.80;;;;;;;;;;5074296;28;20188;-76
2021/04/11 12:10:43;;;;;;;4.95;3.85;;;;;;;;;;5061997;28;20192;-77
2021/04/11 12:13:28;;;;;;;3.30;3.00;;;;;;;;;;5064850;28;20177;-77
2021/04/11 12:16:00;;;;;;;4.50;2.85;;;;;;;;;;5061362;28;20212;-76
2021/04/11 12:18:29;;;;;;;3.30;2.58;;;;;;;;;;5062001;28;20685;-79
2021/04/11 12:21:08;;;;;;;3.08;2.08;;;;;;;;;;5056944;28;20178;-76
2021/04/11 12:24:00;;;;;;;7.25;4.00;;;;;;;;;;5064711;28;20207;-76
2021/04/11 12:26:30;;;;;;;3.58;2.60;;;;;;;;;;5059937;28;20257;-76
2021/04/11 12:29:04;;;;;;;2.67;2.20;;;;;;;;;;5063628;28;20209;-77
2021/04/11 12:31:34;;;;;;;4.70;3.13;;;;;;;;;;5063280;28;20588;-78
2021/04/11 12:34:05;;;;;;;4.72;4.25;;;;;;;;;;5058608;28;20244;-79
2021/04/11 12:36:50;;;;;;;4.63;3.47;;;;;;;;;;5063503;28;20682;-77
2021/04/11 12:39:21;;;;;;;5.90;3.60;;;;;;;;;;5061639;28;20235;-77
2021/04/11 12:41:52;;;;;;;4.00;3.60;;;;;;;;;;5052020;28;20537;-79
2021/04/11 12:44:20;;;;;;;4.88;3.70;;;;;;;;;;5059641;28;20204;-78
2021/04/11 12:46:52;;;;;;;4.95;2.55;;;;;;;;;;5062205;28;20208;-79
2021/04/11 12:49:41;;;;;;;6.57;3.22;;;;;;;;;;5058372;28;20657;-79
2021/04/11 12:52:11;;;;;;;3.58;2.70;;;;;;;;;;5062507;28;20173;-79
2021/04/11 12:54:48;;;;;;;5.95;4.20;;;;;;;;;;5060184;28;20638;-79
2021/04/11 12:57:46;;;;;;;3.85;2.50;;;;;;;;;;5061505;28;20248;-77
2021/04/11 13:00:15;;;;;;;4.07;3.67;;;;;;;;;;5040074;28;20733;-78
2021/04/11 13:02:45;;;;;;;3.17;2.85;;;;;;;;;;5051095;28;20225;-78
2021/04/11 13:05:20;;;;;;;3.17;2.22;;;;;;;;;;5016182;28;20196;-79
2021/04/11 13:07:54;;;;;;;3.80;2.28;;;;;;;;;;5040816;28;20212;-78
2021/04/11 13:10:22;;;;;;;2.35;2.15;;;;;;;;;;5040159;28;20190;-78
2021/04/11 13:12:59;;;;;;;3.78;2.05;;;;;;;;;;5024355;28;20186;-80
2021/04/11 13:15:43;;;;;;;3.97;2.72;;;;;;;;;;5040817;28;20186;-81
2021/04/11 13:18:19;;;;;;;2.78;2.55;;;;;;;;;;5036302;28;20189;-81
2021/04/11 13:20:57;;;;;;;3.50;3.17;;;;;;;;;;5043464;28;20180;-80
2021/04/11 13:23:35;;;;;;;4.95;3.13;;;;;;;;;;5037263;28;20320;-80
2021/04/11 13:26:01;;;;;;;3.67;2.10;;;;;;;;;;5051911;28;20197;-80
2021/04/11 13:28:30;;;;;;;3.80;2.50;;;;;;;;;;5048739;28;20300;-80
2021/04/11 13:31:11;;;;;;;3.45;2.13;;;;;;;;;;5049510;28;20440;-81
2021/04/11 13:33:42;;;;;;;5.35;2.33;;;;;;;;;;5040799;28;20181;-80
2021/04/11 13:36:10;;;;;;;3.72;2.20;;;;;;;;;;5035995;28;20280;-82
2021/04/11 13:38:38;;;;;;;4.18;1.90;;;;;;;;;;5063308;28;20236;-81
2021/04/11 13:41:25;;;;;;;2.15;1.80;;;;;;;;;;5063185;28;20181;-80
2021/04/11 13:43:56;;;;;;;8.65;2.30;;;;;;;;;;5060355;28;20231;-82
2021/04/11 13:46:26;;;;;;;2.83;1.75;;;;;;;;;;5073747;28;20622;-84
2021/04/11 13:48:58;;;;;;;3.63;2.15;;;;;;;;;;5071469;28;20193;-82
2021/04/11 13:51:31;;;;;;;3.42;2.00;;;;;;;;;;5078322;28;20207;-81
2021/04/11 13:54:18;;;;;;;2.85;2.10;;;;;;;;;;5061944;28;20260;-81
2021/04/11 13:56:53;;;;;;;6.88;2.20;;;;;;;;;;5078534;28;20205;-83
2021/04/11 13:59:37;;;;;;;4.60;2.90;;;;;;;;;;5059672;28;20288;-82
2021/04/11 14:02:12;;;;;;;4.50;2.85;;;;;;;;;;5062255;28;20197;-85
2021/04/11 14:04:46;;;;;;;7.10;2.53;;;;;;;;;;5060279;28;20172;-84
2021/04/11 14:07:17;;;;;;;3.55;1.70;;;;;;;;;;5056994;28;20188;-82
2021/04/11 14:09:48;;;;;;;5.95;3.03;;;;;;;;;;5068013;28;20243;-84
2021/04/11 14:12:21;;;;;;;4.80;2.72;;;;;;;;;;5064885;28;20666;-86
2021/04/11 14:14:50;;;;;;;2.83;2.55;;;;;;;;;;5072762;28;20208;-85
2021/04/11 14:17:23;;;;;;;3.88;3.25;;;;;;;;;;5061110;28;20189;-84
2021/04/11 14:20:00;;;;;;;3.75;2.30;;;;;;;;;;5077140;28;20682;-83
2021/04/11 14:22:35;;;;;;;3.72;2.10;;;;;;;;;;5071288;28;20215;-83
2021/04/11 14:25:04;;;;;;;3.28;1.80;;;;;;;;;;5049228;28;20186;-81
2021/04/11 14:27:43;;;;;;;3.67;2.45;;;;;;;;;;5052070;28;20221;-84
2021/04/11 14:30:24;;;;;;;2.22;2.00;;;;;;;;;;5063757;28;20189;-78
2021/04/11 14:33:03;;;;;;;4.78;2.05;;;;;;;;;;5056443;28;20189;-82
2021/04/11 14:35:32;;;;;;;3.25;2.47;;;;;;;;;;5060855;28;20196;-82
2021/04/11 14:38:04;;;;;;;4.85;2.90;;;;;;;;;;5061776;28;20193;-83
2021/04/11 14:40:33;;;;;;;4.88;3.35;;;;;;;;;;5063658;28;20184;-82
2021/04/11 14:43:04;;;;;;;4.78;2.30;;;;;;;;;;5061994;28;20203;-85
2021/04/11 14:45:34;;;;;;;2.88;2.42;;;;;;;;;;5061516;28;20191;-84
2021/04/11 14:48:05;;;;;;;3.13;2.20;;;;;;;;;;5069402;28;20182;-85
2021/04/11 14:50:33;;;;;;;2.47;2.00;;;;;;;;;;5061427;28;20200;-84
2021/04/11 14:53:10;;;;;;;2.67;2.30;;;;;;;;;;5062250;28;20249;-85
2021/04/11 14:55:59;;;;;;;2.25;2.05;;;;;;;;;;5058109;28;20188;-85
2021/04/11 14:58:48;;;;;;;4.38;2.70;;;;;;;;;;5041072;28;20241;-85
2021/04/11 15:01:34;;;;;;;7.03;4.13;;;;;;;;;;5035253;28;20190;-87
2021/04/11 15:04:16;;;;;;;2.90;1.95;;;;;;;;;;5041983;28;20190;-85
2021/04/11 15:06:45;;;;;;;5.65;2.10;;;;;;;;;;5032648;28;20264;-85
2021/04/11 15:09:30;;;;;;;3.92;2.17;;;;;;;;;;5027038;28;20201;-84